Time;durP1;ratioP1;P1;durP2;ratioP2;P2;SDS_P1;SDS_P2;PMS_P1;PMS_P2;Temp;Humidity;BMP_temperature;BMP_pressure;BME280_temperature;BME280_humidity;BME280_pressure;Samples;Min_cycle;Max_cycle;Signal;HPM_P1;HPM_P2
2023/07/30 00:00:28;;;;;;;5.00;4.50;;;;;;;22.51;83.80;100511.19;5049159;27;98647;-65
2023/07/30 00:02:54;;;;;;;5.53;4.43;;;;;;;22.44;84.19;100502.78;5057034;27;98928;-66
2023/07/30 00:05:21;;;;;;;4.50;3.58;;;;;;;22.64;82.54;100501.00;5054517;27;100947;-67
2023/07/30 00:07:47;;;;;;;5.00;4.00;;;;;;;22.61;82.21;100504.81;5061383;27;96873;-66
2023/07/30 00:10:15;;;;;;;7.22;3.75;;;;;;;22.57;82.63;100499.84;5053686;27;96976;-65
2023/07/30 00:12:41;;;;;;;4.68;4.20;;;;;;;22.64;82.72;100506.41;5055328;27;99350;-66
2023/07/30 00:15:09;;;;;;;5.05;4.55;;;;;;;22.47;81.82;100501.66;5052208;27;98355;-66
2023/07/30 00:17:35;;;;;;;5.25;3.92;;;;;;;22.46;82.06;100500.78;5062592;27;96715;-66
2023/07/30 00:20:02;;;;;;;4.93;3.80;;;;;;;22.38;81.87;100503.34;5053379;27;97223;-67
2023/07/30 00:22:29;;;;;;;8.25;4.40;;;;;;;22.32;82.80;100501.16;5051145;27;98877;-66
2023/07/30 00:24:55;;;;;;;5.25;3.53;;;;;;;22.39;81.36;100505.00;5057077;27;98810;-66
2023/07/30 00:27:23;;;;;;;4.18;3.67;;;;;;;22.26;81.64;100501.69;5059229;27;97406;-66
2023/07/30 00:29:49;;;;;;;5.30;3.42;;;;;;;22.23;81.27;100499.28;5057276;27;97089;-65
2023/07/30 00:32:17;;;;;;;4.03;3.55;;;;;;;22.20;81.94;100494.16;5046986;27;99068;-66
2023/07/30 00:34:43;;;;;;;5.32;3.10;;;;;;;22.30;80.97;100495.06;5057368;27;99226;-66
2023/07/30 00:37:09;;;;;;;3.50;3.20;;;;;;;22.25;81.65;100503.53;5048985;27;98687;-66
2023/07/30 00:39:36;;;;;;;5.72;3.35;;;;;;;22.36;80.85;100499.91;5058440;27;96922;-66
2023/07/30 00:42:02;;;;;;;6.20;2.90;;;;;;;22.37;81.10;100496.25;5049400;27;99402;-66
2023/07/30 00:44:30;;;;;;;4.18;2.83;;;;;;;22.32;80.79;100489.56;5053748;27;96737;-66
2023/07/30 00:46:56;;;;;;;4.32;3.05;;;;;;;22.44;80.53;100492.03;5053188;27;97798;-66
2023/07/30 00:49:23;;;;;;;7.53;3.22;;;;;;;22.49;80.24;100479.00;5060903;27;96825;-65
2023/07/30 00:51:49;;;;;;;4.57;3.63;;;;;;;22.56;80.16;100469.38;5054437;27;99526;-66
2023/07/30 00:54:16;;;;;;;6.90;3.67;;;;;;;22.73;80.05;100467.03;5058347;27;96801;-66
2023/07/30 00:56:50;;;;;;;4.47;3.55;;;;;;;22.73;79.68;100461.63;5049996;27;97271;-66
2023/07/30 00:59:16;;;;;;;3.58;3.10;;;;;;;22.77;79.79;100463.09;5047464;27;98780;-66
2023/07/30 01:01:46;;;;;;;4.70;3.35;;;;;;;22.63;79.89;100457.06;5048711;27;102427;-66
2023/07/30 01:04:14;;;;;;;4.97;3.15;;;;;;;22.37;80.80;100463.09;5045363;27;101847;-66
2023/07/30 01:06:40;;;;;;;6.78;4.15;;;;;;;22.25;81.22;100465.84;5048070;27;97615;-66
2023/07/30 01:09:06;;;;;;;6.15;3.20;;;;;;;22.18;81.54;100475.50;5051284;27;96870;-66
2023/07/30 01:11:33;;;;;;;3.70;3.38;;;;;;;22.10;82.36;100472.59;5050997;27;99097;-66
2023/07/30 01:14:00;;;;;;;3.63;3.05;;;;;;;22.14;80.53;100467.78;5055509;27;98839;-67
2023/07/30 01:16:26;;;;;;;5.28;2.95;;;;;;;22.10;80.78;100485.22;5058328;27;96821;-67
2023/07/30 01:18:54;;;;;;;3.97;3.53;;;;;;;22.05;81.65;100482.06;5064210;27;96838;-67
2023/07/30 01:21:22;;;;;;;7.07;2.65;;;;;;;21.86;82.43;100483.63;5058309;27;99400;-66
2023/07/30 01:23:48;;;;;;;5.60;3.75;;;;;;;21.84;82.74;100490.13;5066648;27;99162;-67
2023/07/30 01:26:23;;;;;;;4.90;3.20;;;;;;;21.75;82.55;100483.69;5061617;27;97443;-67
2023/07/30 01:28:54;;;;;;;4.25;3.00;;;;;;;22.23;80.82;100493.91;5055495;27;96818;-66
2023/07/30 01:31:22;;;;;;;3.33;3.03;;;;;;;22.46;80.25;100495.41;5058790;27;98279;-66
2023/07/30 01:33:53;;;;;;;4.60;3.33;;;;;;;22.02;81.63;100485.03;5061316;27;99130;-66
2023/07/30 01:36:21;;;;;;;3.40;3.13;;;;;;;22.01;81.36;100488.69;5055115;27;96926;-66
2023/07/30 01:38:49;;;;;;;3.50;3.20;;;;;;;21.71;82.80;100493.03;5053124;27;97267;-65
2023/07/30 01:41:16;;;;;;;3.50;3.05;;;;;;;21.78;82.78;100487.97;5057947;27;99392;-65
2023/07/30 01:43:43;;;;;;;6.10;3.20;;;;;;;21.60;83.10;100498.44;5054200;27;98911;-66
2023/07/30 01:46:09;;;;;;;5.57;3.45;;;;;;;21.64;82.81;100501.75;5059578;27;97590;-66
2023/07/30 01:48:35;;;;;;;4.57;3.47;;;;;;;21.52;83.40;100514.41;5052271;27;96836;-66
2023/07/30 01:51:02;;;;;;;4.03;3.65;;;;;;;21.59;82.97;100520.13;5058406;27;98893;-66
2023/07/30 01:53:30;;;;;;;7.40;3.80;;;;;;;21.71;82.27;100514.53;5050874;27;98627;-66
2023/07/30 01:55:56;;;;;;;4.72;3.63;;;;;;;21.50;82.47;100510.97;5049801;27;97859;-67
2023/07/30 01:58:22;;;;;;;5.13;3.55;;;;;;;21.74;81.75;100516.94;5048326;27;97004;-67
2023/07/30 02:00:49;;;;;;;3.50;3.05;;;;;;;21.82;80.67;100519.84;5043636;27;101906;-67
2023/07/30 02:03:15;;;;;;;4.45;3.47;;;;;;;21.85;80.37;100514.22;5055601;27;99133;-67
2023/07/30 02:05:42;;;;;;;5.18;3.33;;;;;;;21.66;81.68;100508.69;5056424;27;96874;-67
2023/07/30 02:08:08;;;;;;;3.53;3.22;;;;;;;21.64;81.86;100513.34;5057848;27;97424;-66
2023/07/30 02:10:36;;;;;;;6.93;3.47;;;;;;;21.79;80.90;100509.34;5048689;27;100718;-66
2023/07/30 02:13:02;;;;;;;4.00;3.20;;;;;;;22.00;81.12;100511.19;5056154;27;99606;-66
2023/07/30 02:15:29;;;;;;;6.65;3.58;;;;;;;21.88;80.64;100505.88;5050004;27;97304;-66
2023/07/30 02:17:55;;;;;;;5.28;4.00;;;;;;;21.71;81.17;100506.47;5052893;27;96953;-66
2023/07/30 02:20:21;;;;;;;4.93;3.22;;;;;;;21.97;80.98;100498.03;5061295;27;97652;-66
2023/07/30 02:22:48;;;;;;;5.03;3.53;;;;;;;21.88;80.73;100519.31;5047413;27;99834;-66
2023/07/30 02:25:14;;;;;;;6.70;3.30;;;;;;;21.87;80.66;100517.59;5047504;27;96946;-66
2023/07/30 02:27:42;;;;;;;5.68;3.47;;;;;;;21.60;81.39;100522.66;5054150;27;97558;-65
2023/07/30 02:30:09;;;;;;;3.85;3.20;;;;;;;21.82;81.04;100521.69;5048058;27;98678;-65
2023/07/30 02:32:35;;;;;;;3.58;3.20;;;;;;;21.57;81.79;100522.94;5052490;27;98825;-65
2023/07/30 02:35:01;;;;;;;3.92;3.03;;;;;;;21.64;81.83;100521.41;5049406;27;96766;-65
2023/07/30 02:37:28;;;;;;;7.65;3.47;;;;;;;21.73;81.57;100523.31;5056796;27;97012;-64
2023/07/30 02:39:54;;;;;;;7.78;3.28;;;;;;;21.76;81.27;100525.75;5052907;27;99069;-67
2023/07/30 02:42:21;;;;;;;6.75;3.35;;;;;;;21.69;80.84;100521.88;5054463;27;101785;-66
2023/07/30 02:44:48;;;;;;;7.45;3.70;;;;;;;21.71;80.92;100528.00;5050127;27;96839;-68
2023/07/30 02:47:15;;;;;;;4.95;2.88;;;;;;;21.73;80.09;100522.47;5056070;27;96876;-65
2023/07/30 02:49:41;;;;;;;5.78;3.35;;;;;;;21.60;80.69;100533.41;5042832;27;98996;-65
2023/07/30 02:52:08;;;;;;;4.50;3.30;;;;;;;21.62;80.36;100536.81;5056606;27;100640;-66
2023/07/30 02:54:34;;;;;;;5.90;3.63;;;;;;;21.75;79.60;100532.09;5041829;27;98752;-65
2023/07/30 02:57:01;;;;;;;9.38;3.92;;;;;;;21.83;80.15;100529.63;5043278;27;98499;-65
2023/07/30 02:59:28;;;;;;;7.20;4.20;;;;;;;21.62;80.26;100535.97;5047437;27;99035;-66
2023/07/30 03:01:56;;;;;;;5.72;3.85;;;;;;;21.73;80.34;100534.06;5052369;27;99126;-65
2023/07/30 03:04:22;;;;;;;3.97;3.13;;;;;;;21.87;80.08;100533.75;5051441;27;96760;-65
2023/07/30 03:06:48;;;;;;;4.93;3.28;;;;;;;22.07;79.46;100525.81;5048059;27;96786;-65
2023/07/30 03:09:15;;;;;;;3.45;3.10;;;;;;;21.87;79.42;100524.81;5047263;27;104102;-65
2023/07/30 03:11:41;;;;;;;6.50;4.00;;;;;;;21.79;79.81;100536.22;5043508;27;99284;-66
2023/07/30 03:14:08;;;;;;;3.72;2.85;;;;;;;21.67;80.26;100534.59;5043332;27;96839;-66
2023/07/30 03:16:34;;;;;;;5.10;3.03;;;;;;;21.77;80.27;100534.69;5050387;27;97961;-66
2023/07/30 03:19:02;;;;;;;5.10;2.95;;;;;;;21.59;81.10;100542.47;5051778;27;99202;-65
2023/07/30 03:21:28;;;;;;;5.25;3.03;;;;;;;21.74;80.53;100541.16;5052397;27;100835;-65
2023/07/30 03:23:55;;;;;;;8.40;3.30;;;;;;;21.69;80.43;100539.84;5052069;27;96717;-65
2023/07/30 03:26:21;;;;;;;4.22;3.15;;;;;;;21.47;81.33;100543.47;5052378;27;97173;-66
2023/07/30 03:28:47;;;;;;;4.50;3.63;;;;;;;21.64;80.57;100540.25;5049360;27;99203;-71
2023/07/30 03:31:14;;;;;;;8.40;3.42;;;;;;;21.61;81.24;100537.81;5052165;27;97774;-73
2023/07/30 03:33:43;;;;;;;4.25;3.30;;;;;;;21.43;81.56;100542.91;5051806;27;97075;-73
2023/07/30 03:36:11;;;;;;;4.72;3.85;;;;;;;21.65;80.95;100538.41;5051805;27;97329;-72
2023/07/30 03:38:37;;;;;;;3.60;3.30;;;;;;;21.42;81.36;100551.94;5050781;27;99217;-72
2023/07/30 03:41:05;;;;;;;6.13;3.17;;;;;;;21.51;81.18;100553.03;5045303;27;101286;-72
2023/07/30 03:43:31;;;;;;;3.20;2.90;;;;;;;21.30;81.86;100552.13;5050047;27;96670;-71
2023/07/30 03:45:58;;;;;;;3.50;3.20;;;;;;;21.45;81.41;100564.28;5046065;27;96887;-71
2023/07/30 03:48:24;;;;;;;4.07;3.42;;;;;;;21.56;81.50;100553.47;5036635;27;99117;-73
2023/07/30 03:50:51;;;;;;;6.25;3.38;;;;;;;21.51;81.52;100560.22;5042446;27;98759;-71
2023/07/30 03:53:19;;;;;;;4.15;3.42;;;;;;;21.59;81.07;100553.22;5049807;27;97059;-71
2023/07/30 03:55:45;;;;;;;4.68;3.22;;;;;;;21.45;81.79;100550.84;5051527;27;96734;-72
2023/07/30 03:58:12;;;;;;;4.45;3.13;;;;;;;21.66;80.57;100551.69;5048730;27;99504;-71
2023/07/30 04:00:38;;;;;;;5.05;3.15;;;;;;;21.68;80.69;100549.75;5043628;27;99300;-71
2023/07/30 04:03:05;;;;;;;7.50;3.58;;;;;;;21.66;80.93;100549.00;5048769;27;96855;-72
2023/07/30 04:05:31;;;;;;;4.60;3.78;;;;;;;21.71;80.46;100557.56;5049325;27;96966;-72
2023/07/30 04:07:58;;;;;;;4.63;3.53;;;;;;;21.79;80.21;100562.31;5048748;27;97644;-71
2023/07/30 04:10:26;;;;;;;5.22;3.40;;;;;;;21.70;80.29;100552.31;5051442;27;97979;-72
2023/07/30 04:12:53;;;;;;;10.45;3.85;;;;;;;21.71;79.94;100554.88;5050292;27;96812;-72
2023/07/30 04:15:19;;;;;;;6.45;3.67;;;;;;;21.92;79.55;100562.97;5048984;27;97043;-73
2023/07/30 04:17:45;;;;;;;11.65;3.30;;;;;;;21.90;79.09;100564.91;5047613;27;98350;-72
2023/07/30 04:20:12;;;;;;;3.92;3.45;;;;;;;21.90;79.21;100564.06;5044831;27;98693;-72
2023/07/30 04:22:41;;;;;;;5.22;3.75;;;;;;;21.83;79.40;100580.72;5046646;27;98803;-72
2023/07/30 04:25:10;;;;;;;3.88;2.70;;;;;;;22.31;77.88;100579.38;5048820;27;96873;-72
2023/07/30 04:27:38;;;;;;;4.10;3.72;;;;;;;22.43;76.82;100571.06;5047998;27;100198;-73
2023/07/30 04:30:05;;;;;;;6.50;3.92;;;;;;;22.46;76.79;100562.72;5049724;27;98924;-72
2023/07/30 04:32:32;;;;;;;3.97;3.57;;;;;;;22.55;75.74;100571.84;5045231;27;97211;-73
2023/07/30 04:34:58;;;;;;;4.10;3.80;;;;;;;22.17;77.50;100575.19;5044887;27;96787;-72
2023/07/30 04:37:24;;;;;;;7.85;3.75;;;;;;;22.29;77.84;100576.81;5047389;27;99098;-72
2023/07/30 04:39:51;;;;;;;3.97;3.35;;;;;;;22.30;77.65;100578.53;5049845;27;99032;-72
2023/07/30 04:42:17;;;;;;;3.67;3.38;;;;;;;22.64;76.22;100585.31;5038496;27;97570;-72
2023/07/30 04:44:45;;;;;;;4.13;3.67;;;;;;;22.58;76.28;100585.00;5042428;27;96918;-72
2023/07/30 04:47:11;;;;;;;5.60;3.50;;;;;;;22.78;75.50;100591.34;5046201;27;98965;-73
2023/07/30 04:49:40;;;;;;;4.70;4.22;;;;;;;22.74;75.40;100595.31;5048840;27;99635;-73
2023/07/30 04:52:07;;;;;;;5.35;3.78;;;;;;;22.67;75.63;100590.44;5050058;27;97155;-71
2023/07/30 04:54:35;;;;;;;4.28;3.88;;;;;;;22.62;75.10;100590.00;5050036;27;98631;-71
2023/07/30 04:57:02;;;;;;;4.60;3.83;;;;;;;22.92;74.18;100582.91;5052397;27;99566;-72
2023/07/30 04:59:29;;;;;;;4.43;3.40;;;;;;;22.77;73.84;100578.91;5054362;27;98847;-72
2023/07/30 05:01:56;;;;;;;3.70;3.40;;;;;;;22.79;74.17;100572.38;5053903;27;96754;-65
2023/07/30 05:04:23;;;;;;;3.88;3.47;;;;;;;23.06;73.04;100569.03;5049257;27;96947;-65
2023/07/30 05:06:49;;;;;;;3.80;3.50;;;;;;;22.99;72.82;100574.13;5051709;27;98888;-65
2023/07/30 05:09:16;;;;;;;6.45;3.33;;;;;;;23.21;72.47;100572.19;5053812;27;99097;-65
2023/07/30 05:11:42;;;;;;;4.97;3.22;;;;;;;23.30;71.80;100574.91;5054273;27;96923;-66
2023/07/30 05:14:08;;;;;;;4.13;3.03;;;;;;;23.29;71.59;100575.06;5050395;27;99791;-65
2023/07/30 05:16:36;;;;;;;3.58;3.28;;;;;;;23.34;71.56;100576.34;5049877;27;99463;-70
2023/07/30 05:19:04;;;;;;;4.00;2.85;;;;;;;23.36;71.12;100582.47;5047961;27;98798;-69
2023/07/30 05:21:30;;;;;;;4.40;3.22;;;;;;;23.60;70.16;100579.38;5044187;27;96806;-72
2023/07/30 05:23:56;;;;;;;3.72;3.40;;;;;;;23.81;69.58;100573.84;5047084;27;96839;-71
2023/07/30 05:26:23;;;;;;;2.85;2.65;;;;;;;24.17;68.14;100575.75;5051728;27;97673;-72
2023/07/30 05:28:49;;;;;;;3.95;2.55;;;;;;;24.19;67.65;100578.34;5054039;27;99312;-72
2023/07/30 05:31:16;;;;;;;2.97;2.65;;;;;;;24.24;65.80;100576.06;5052725;27;97165;-72
2023/07/30 05:33:42;;;;;;;2.63;2.40;;;;;;;24.06;66.22;100575.91;5047847;27;96864;-72
2023/07/30 05:36:10;;;;;;;6.57;2.35;;;;;;;24.00;66.38;100579.19;5045664;27;97734;-72
2023/07/30 05:38:36;;;;;;;5.07;2.28;;;;;;;24.08;66.71;100582.03;5048285;27;99080;-72
2023/07/30 05:41:02;;;;;;;4.93;2.42;;;;;;;24.09;66.23;100575.63;5053144;27;96975;-73
2023/07/30 05:43:29;;;;;;;2.90;2.70;;;;;;;23.94;66.94;100576.22;5046710;27;98761;-72
2023/07/30 05:45:55;;;;;;;2.72;2.53;;;;;;;24.05;66.29;100584.16;5046860;27;99103;-72
2023/07/30 05:48:22;;;;;;;4.15;2.58;;;;;;;23.94;66.88;100587.03;5050890;27;99235;-72
2023/07/30 05:50:48;;;;;;;2.70;2.50;;;;;;;23.83;67.86;100585.31;5046912;27;100349;-72
2023/07/30 05:53:16;;;;;;;4.07;2.67;;;;;;;23.92;67.29;100576.38;5048871;27;96996;-73
2023/07/30 05:55:42;;;;;;;4.75;2.55;;;;;;;23.68;67.46;100584.91;5047980;27;99034;-66
2023/07/30 05:58:09;;;;;;;3.08;2.63;;;;;;;23.99;66.78;100580.19;5048447;27;99109;-66
2023/07/30 06:00:36;;;;;;;2.50;2.30;;;;;;;23.93;67.61;100588.88;5050281;27;98463;-66
2023/07/30 06:03:03;;;;;;;2.25;2.05;;;;;;;23.86;68.32;100589.59;5038687;27;98929;-67
2023/07/30 06:05:29;;;;;;;2.65;2.45;;;;;;;24.05;67.26;100590.41;5050001;27;99392;-66
2023/07/30 06:07:56;;;;;;;3.13;2.45;;;;;;;24.05;67.20;100587.72;5047642;27;98809;-67
2023/07/30 06:10:24;;;;;;;2.47;2.28;;;;;;;24.08;66.85;100578.47;5052153;27;96883;-66
2023/07/30 06:12:50;;;;;;;2.15;2.00;;;;;;;23.90;66.61;100589.13;5050946;27;97039;-66
2023/07/30 06:15:17;;;;;;;2.38;2.17;;;;;;;24.23;66.08;100585.13;5046513;27;99577;-65
2023/07/30 06:17:43;;;;;;;3.45;2.10;;;;;;;24.05;66.66;100585.00;5052054;27;97964;-66
2023/07/30 06:20:10;;;;;;;4.05;2.40;;;;;;;24.10;65.97;100579.16;5050645;27;97086;-66
2023/07/30 06:22:37;;;;;;;2.60;2.40;;;;;;;24.08;66.57;100590.13;5053176;27;96874;-66
2023/07/30 06:25:04;;;;;;;2.58;2.38;;;;;;;24.04;66.25;100596.78;5046302;27;99603;-66
2023/07/30 06:27:32;;;;;;;2.28;2.17;;;;;;;24.34;65.94;100590.41;5050364;27;97727;-66
2023/07/30 06:29:58;;;;;;;5.70;2.30;;;;;;;24.21;66.61;100585.31;5046092;27;96842;-66
2023/07/30 06:32:25;;;;;;;2.63;1.95;;;;;;;24.23;66.18;100579.75;5051253;27;97259;-66
2023/07/30 06:34:51;;;;;;;2.75;2.30;;;;;;;24.30;65.46;100588.09;5041271;27;99394;-67
2023/07/30 06:37:17;;;;;;;3.13;2.13;;;;;;;24.43;65.65;100580.53;5049204;27;99224;-67
2023/07/30 06:39:44;;;;;;;3.25;2.35;;;;;;;24.65;64.91;100582.03;5049110;27;97179;-67
2023/07/30 06:42:11;;;;;;;4.15;2.42;;;;;;;24.58;65.37;100588.03;5051604;27;96818;-68
2023/07/30 06:44:39;;;;;;;2.40;2.20;;;;;;;24.86;64.88;100590.75;5040870;27;100113;-67
2023/07/30 06:47:05;;;;;;;2.38;2.17;;;;;;;25.09;63.97;100575.00;5045619;27;98769;-67
2023/07/30 06:49:33;;;;;;;6.03;1.92;;;;;;;24.84;64.66;100590.91;5050797;27;96826;-67
2023/07/30 06:52:01;;;;;;;6.85;2.10;;;;;;;25.08;63.78;100594.91;5041688;27;97106;-67
2023/07/30 06:54:28;;;;;;;1.98;1.80;;;;;;;25.00;64.37;100588.44;5042551;27;99284;-67
2023/07/30 06:56:54;;;;;;;4.55;2.05;;;;;;;25.09;63.40;100588.50;5045475;27;99028;-66
2023/07/30 06:59:20;;;;;;;3.85;2.35;;;;;;;24.85;63.52;100586.34;5049930;27;96814;-67
2023/07/30 07:01:48;;;;;;;2.45;2.25;;;;;;;24.88;63.92;100588.72;5043175;27;98684;-67
2023/07/30 07:04:15;;;;;;;2.13;1.90;;;;;;;24.96;63.36;100578.91;5047043;27;101010;-66
2023/07/30 07:06:41;;;;;;;4.32;2.17;;;;;;;25.14;63.48;100586.22;5044941;27;98898;-66
2023/07/30 07:09:07;;;;;;;2.90;2.22;;;;;;;24.94;63.58;100582.78;5046823;27;98775;-66
2023/07/30 07:11:34;;;;;;;2.30;1.92;;;;;;;25.11;63.35;100591.94;5051606;27;97021;-66
2023/07/30 07:14:00;;;;;;;2.58;1.80;;;;;;;25.31;63.51;100591.66;5046412;27;101253;-66
2023/07/30 07:16:27;;;;;;;5.32;2.30;;;;;;;25.67;62.15;100586.28;5050413;27;99465;-65
2023/07/30 07:18:54;;;;;;;4.35;2.10;;;;;;;26.13;60.58;100583.28;5050233;27;96716;-66
2023/07/30 07:21:21;;;;;;;2.35;2.10;;;;;;;26.33;60.38;100583.97;5048040;27;96852;-66
2023/07/30 07:23:47;;;;;;;2.90;1.90;;;;;;;26.54;58.95;100576.31;5052272;27;99427;-69
2023/07/30 07:26:14;;;;;;;2.83;2.20;;;;;;;26.36;57.94;100583.66;5051171;27;98823;-67
2023/07/30 07:28:40;;;;;;;3.20;2.10;;;;;;;26.45;58.69;100577.25;5044564;27;97627;-66
2023/07/30 07:31:07;;;;;;;4.35;2.00;;;;;;;26.37;57.77;100569.09;5051556;27;96989;-66
2023/07/30 07:33:33;;;;;;;2.13;1.90;;;;;;;26.17;59.66;100576.56;5044269;27;97738;-66
2023/07/30 07:36:08;;;;;;;3.40;1.85;;;;;;;26.10;59.90;100583.63;5048672;27;99003;-65
2023/07/30 07:38:35;;;;;;;2.20;1.88;;;;;;;25.86;60.75;100574.47;5040067;27;96857;-67
2023/07/30 07:41:02;;;;;;;2.60;1.92;;;;;;;25.94;60.80;100579.91;5047082;27;97905;-66
2023/07/30 07:43:29;;;;;;;7.28;2.00;;;;;;;25.35;61.27;100578.66;5047246;27;100609;-66
2023/07/30 07:45:55;;;;;;;2.70;2.08;;;;;;;25.31;63.24;100575.44;5049692;27;97970;-66
2023/07/30 07:48:22;;;;;;;4.60;2.10;;;;;;;25.59;62.13;100575.41;5045966;27;96802;-66
2023/07/30 07:50:49;;;;;;;2.97;2.10;;;;;;;25.92;60.74;100579.25;5051859;27;96932;-67
2023/07/30 07:53:17;;;;;;;3.42;1.80;;;;;;;26.46;59.07;100570.81;5042806;27;100947;-68
2023/07/30 07:55:44;;;;;;;2.30;2.13;;;;;;;26.58;58.88;100564.13;5043395;27;98261;-66
2023/07/30 07:58:11;;;;;;;4.53;2.47;;;;;;;26.72;57.99;100567.22;5044774;27;97589;-67
2023/07/30 08:00:37;;;;;;;2.20;2.00;;;;;;;26.87;58.26;100571.03;5047946;27;96801;-66
2023/07/30 08:03:04;;;;;;;3.35;2.03;;;;;;;26.97;57.35;100579.94;5050015;27;98878;-67
2023/07/30 08:05:30;;;;;;;3.63;2.28;;;;;;;26.61;58.37;100576.50;5055958;27;99381;-66
2023/07/30 08:07:57;;;;;;;3.67;2.38;;;;;;;27.05;57.26;100581.78;5049495;27;96862;-66
2023/07/30 08:10:24;;;;;;;5.82;2.08;;;;;;;27.19;57.48;100583.88;5049469;27;97271;-66
2023/07/30 08:12:51;;;;;;;3.03;1.83;;;;;;;27.22;57.35;100578.13;5047294;27;97857;-65
2023/07/30 08:15:17;;;;;;;4.95;2.45;;;;;;;27.00;57.11;100576.88;5045795;27;99539;-66
2023/07/30 08:17:43;;;;;;;3.17;2.20;;;;;;;26.91;57.17;100578.69;5049530;27;96922;-66
2023/07/30 08:20:11;;;;;;;4.30;2.15;;;;;;;26.81;56.14;100580.66;5051825;27;96898;-65
2023/07/30 08:22:37;;;;;;;4.65;2.10;;;;;;;27.04;56.25;100586.41;5050424;27;97915;-66
2023/07/30 08:25:04;;;;;;;3.25;1.77;;;;;;;26.59;54.63;100578.50;5049090;27;99566;-67
2023/07/30 08:27:32;;;;;;;3.45;2.08;;;;;;;26.44;55.19;100582.84;5052331;27;97928;-67
2023/07/30 08:29:58;;;;;;;2.47;2.05;;;;;;;26.90;55.45;100585.16;5049399;27;97687;-67
2023/07/30 08:32:25;;;;;;;2.63;1.75;;;;;;;27.35;55.05;100587.50;5045185;27;99164;-67
2023/07/30 08:34:52;;;;;;;3.55;1.90;;;;;;;27.47;53.87;100579.03;5052994;27;102635;-66
2023/07/30 08:37:18;;;;;;;3.55;1.95;;;;;;;27.79;53.67;100583.66;5053538;27;96775;-66
2023/07/30 08:39:44;;;;;;;1.98;1.73;;;;;;;27.49;53.59;100585.16;5045854;27;97301;-65
2023/07/30 08:42:11;;;;;;;3.03;2.15;;;;;;;27.14;52.34;100591.66;5050857;27;101827;-66
2023/07/30 08:44:39;;;;;;;3.42;1.80;;;;;;;27.02;51.82;100585.69;5040674;27;97998;-65
2023/07/30 08:47:05;;;;;;;2.63;1.90;;;;;;;26.74;52.66;100584.19;5046932;27;96819;-65
2023/07/30 08:49:33;;;;;;;3.95;2.10;;;;;;;26.65;53.03;100583.28;5051080;27;98382;-67
2023/07/30 08:52:00;;;;;;;3.90;1.90;;;;;;;26.64;52.92;100583.47;5049916;27;99323;-68
2023/07/30 08:54:30;;;;;;;4.72;2.00;;;;;;;26.53;51.36;100587.28;5046976;27;100877;-68
2023/07/30 08:56:57;;;;;;;2.55;2.08;;;;;;;27.31;50.30;100591.53;5041589;27;97821;-65
2023/07/30 08:59:25;;;;;;;3.80;1.88;;;;;;;27.19;49.22;100586.59;5054147;27;97081;-65
2023/07/30 09:01:54;;;;;;;4.95;2.00;;;;;;;27.59;48.50;100589.41;5041763;27;99155;-66
2023/07/30 09:04:22;;;;;;;3.63;1.50;;;;;;;27.59;48.49;100586.72;5039066;27;100688;-66
2023/07/30 09:06:50;;;;;;;5.55;2.00;;;;;;;27.81;47.74;100590.63;5048791;27;100950;-68
2023/07/30 09:09:17;;;;;;;4.57;1.75;;;;;;;28.27;47.33;100590.97;5049965;27;97209;-66
2023/07/30 09:11:44;;;;;;;3.95;1.85;;;;;;;28.36;44.98;100592.66;5047992;27;98938;-67
2023/07/30 09:14:10;;;;;;;5.20;1.58;;;;;;;28.24;43.09;100589.44;5038364;27;98095;-67
2023/07/30 09:16:37;;;;;;;4.65;1.65;;;;;;;28.25;43.61;100596.56;5037791;27;97327;-67
2023/07/30 09:19:07;;;;;;;3.05;1.67;;;;;;;28.36;43.59;100600.78;5046990;27;97023;-66
2023/07/30 09:21:35;;;;;;;2.05;1.52;;;;;;;28.37;44.11;100599.78;5048728;27;102071;-65
2023/07/30 09:24:05;;;;;;;8.07;1.75;;;;;;;28.56;44.16;100599.41;5053128;27;99021;-67
2023/07/30 09:26:40;;;;;;;3.40;1.98;;;;;;;28.61;42.76;100599.75;5046613;27;97067;-69
2023/07/30 09:29:08;;;;;;;1.75;1.55;;;;;;;28.86;42.09;100600.53;5053718;27;96854;-67
2023/07/30 09:31:46;;;;;;;2.58;1.75;;;;;;;28.58;42.58;100602.78;5052380;27;99781;-66
2023/07/30 09:34:16;;;;;;;2.40;1.73;;;;;;;27.74;44.40;100614.03;5049547;27;101164;-65
2023/07/30 09:36:45;;;;;;;2.50;1.67;;;;;;;27.53;44.52;100597.38;5041709;27;97444;-66
2023/07/30 09:39:16;;;;;;;5.65;1.95;;;;;;;28.04;43.54;100610.66;5040901;27;98150;-64
2023/07/30 09:41:42;;;;;;;4.22;1.85;;;;;;;28.38;42.29;100606.91;5041261;27;97708;-65
2023/07/30 09:44:09;;;;;;;3.78;1.42;;;;;;;28.59;41.52;100603.66;5045750;27;99569;-64
2023/07/30 09:46:43;;;;;;;4.53;1.55;;;;;;;28.66;41.87;100605.50;5050482;27;96912;-64
2023/07/30 09:49:10;;;;;;;2.88;1.60;;;;;;;28.40;42.37;100613.03;5053251;27;97301;-64
2023/07/30 09:51:39;;;;;;;2.95;1.63;;;;;;;28.16;43.25;100613.06;5051384;27;101854;-64
2023/07/30 09:54:07;;;;;;;2.28;1.73;;;;;;;27.81;43.45;100611.50;5042052;27;99704;-64
2023/07/30 09:56:34;;;;;;;2.30;1.75;;;;;;;27.80;43.87;100607.94;5050410;27;97296;-65
2023/07/30 09:59:00;;;;;;;5.35;2.05;;;;;;;28.17;44.24;100612.88;5053903;27;96814;-65
2023/07/30 10:01:31;;;;;;;3.45;1.80;;;;;;;28.50;43.16;100609.09;5042785;27;98380;-63
2023/07/30 10:03:58;;;;;;;4.05;1.80;;;;;;;28.42;42.57;100619.16;5038998;27;99035;-65
2023/07/30 10:06:27;;;;;;;3.88;1.90;;;;;;;27.68;43.38;100615.56;5051413;27;97032;-64
2023/07/30 10:08:59;;;;;;;2.03;1.45;;;;;;;27.83;43.09;100615.72;5049103;27;100870;-63
2023/07/30 10:11:28;;;;;;;2.25;1.80;;;;;;;27.98;42.52;100616.75;5050241;27;99165;-63
2023/07/30 10:13:54;;;;;;;7.13;1.83;;;;;;;28.63;42.64;100607.69;5051339;27;97575;-64
2023/07/30 10:16:26;;;;;;;2.65;1.77;;;;;;;28.30;41.11;100604.19;5051208;27;96888;-64
2023/07/30 10:18:57;;;;;;;5.03;1.63;;;;;;;28.21;41.41;100600.66;5048901;27;97260;-64
2023/07/30 10:21:25;;;;;;;7.40;2.25;;;;;;;27.89;42.42;100600.66;5050986;27;99525;-63
2023/07/30 10:24:01;;;;;;;2.83;1.80;;;;;;;28.22;42.33;100604.25;5046303;27;98873;-64
2023/07/30 10:26:29;;;;;;;4.15;1.35;;;;;;;28.20;41.41;100611.69;5046612;27;97167;-64
2023/07/30 10:29:11;;;;;;;3.53;1.65;;;;;;;28.24;40.53;100604.88;5051913;27;99297;-64
2023/07/30 10:31:41;;;;;;;6.15;1.67;;;;;;;28.50;40.43;100610.97;5051479;27;99298;-64
2023/07/30 10:34:09;;;;;;;5.70;2.97;;;;;;;28.40;40.72;100613.88;5050866;27;98799;-64
2023/07/30 10:36:43;;;;;;;2.63;1.63;;;;;;;27.92;40.96;100612.00;5047811;27;97285;-64
2023/07/30 10:39:17;;;;;;;6.38;1.60;;;;;;;27.79;42.18;100611.66;5045945;27;97633;-64
2023/07/30 10:41:45;;;;;;;4.45;1.60;;;;;;;27.96;42.13;100613.34;5043514;27;99334;-64
2023/07/30 10:44:31;;;;;;;8.02;2.60;;;;;;;28.08;42.08;100601.16;5038965;27;98962;-64
2023/07/30 10:47:00;;;;;;;3.45;1.50;;;;;;;28.14;41.81;100602.38;5045014;27;96878;-64
2023/07/30 10:49:26;;;;;;;3.17;1.95;;;;;;;27.96;41.04;100605.22;5043268;27;96845;-64
2023/07/30 10:51:54;;;;;;;4.10;2.10;;;;;;;27.84;41.91;100605.72;5039939;27;99246;-64
2023/07/30 10:54:22;;;;;;;6.60;1.88;;;;;;;27.86;41.94;100612.69;5042569;27;101219;-63
2023/07/30 10:56:49;;;;;;;3.30;1.92;;;;;;;27.90;40.39;100608.59;5039395;27;98517;-64
2023/07/30 10:59:16;;;;;;;3.15;1.50;;;;;;;27.53;40.14;100616.38;5042585;27;98750;-65
2023/07/30 11:01:44;;;;;;;2.03;1.50;;;;;;;27.43;39.73;100616.50;5043285;27;98708;-65
2023/07/30 11:04:13;;;;;;;7.28;1.52;;;;;;;27.40;40.08;100613.28;5040824;27;101368;-64
2023/07/30 11:06:39;;;;;;;2.53;1.48;;;;;;;27.81;39.00;100615.06;5032908;27;98750;-64
2023/07/30 11:09:06;;;;;;;4.75;1.73;;;;;;;28.38;38.35;100621.34;5039165;27;97076;-64
2023/07/30 11:11:34;;;;;;;5.43;2.10;;;;;;;27.82;38.79;100613.22;5043679;27;99067;-63
2023/07/30 11:14:01;;;;;;;1.75;1.30;;;;;;;27.90;37.54;100615.91;5041751;27;98861;-64
2023/07/30 11:16:27;;;;;;;3.75;1.63;;;;;;;27.88;36.88;100605.25;5047709;27;96772;-63
2023/07/30 11:18:53;;;;;;;3.47;1.50;;;;;;;27.77;37.72;100605.56;5038958;27;96843;-63
2023/07/30 11:21:20;;;;;;;4.60;1.40;;;;;;;28.08;37.83;100600.31;5040348;27;101099;-63
2023/07/30 11:23:47;;;;;;;3.97;1.60;;;;;;;28.46;37.40;100599.59;5042035;27;101526;-62